Sidney Municipal-Lloyd W Carr Field
KSNY : now visible

Airfield :











YOU CAN JOIN US ON...

 
LOGIN :

Register | Disclaimer

   EN    FR    IT 

 









Legend :    VFR   Marginal VFR   IFR   Intensive IFR   Very Intensive IFR
Visi :
Ceiling :
>= 8 km
>= 3000ft
5 to 8 km
1000 to 3000 ft
1500m to 5 km
500 to 1000 ft
800 to 1500m
200 to 500 ft
< 800m
< 200 ft
Symbols :   Thunderstorms  Fog  Heavy snow  Heavy precipitations  Wind > 20 kt






- Airport Elevation : 4313 ft


KSNY - Sidney Municipal-Lloyd W Carr Field

CURRENT METAR :
  • 291153Z AUTO 20015KT 10SM CLR 20/08 A3008 RMK AO2 SLP121 T02000083 10228 20156 58006

EXPIRED METARs :
  • 291053Z AUTO 21010KT 10SM CLR 16/08 A3010 RMK AO2 SLP133 T01610078
  • 290953Z AUTO 20013KT 10SM CLR 19/08 A3009 RMK AO2 SLP126 T01940078

TAF KSNY
Valid from the 29 at 12:00 until the 30 at 12:00 UTC


291120Z 2912/3012 22010KT P6SM SCT250
FM291500 22015G25KT P6SM FEW250
FM292000 25015G22KT P6SM VCTS OVC080CB
FM300000 25014KT P6SM -TSRA OVC080CB
FM300600 24013KT P6SM BKN150
KZDV FIR / North America



MET'MAP, your aeronautical weather chart ! - Copyright ORBIFLY December 2007 - Disclaimer

ORBIFLY MET'MAP TEAM :

Programming & Development : Alexandra Zaïnal
Original concept : Baudouin d'Aumeries
Technical & hardware support : Manuel Goepfert
Assistance : Marc-Olivier Méhu




SOURCES & CREDITS :

   NOAA       Earth
Advisory